createdAt,value
2022-10-11T00:01:25.636Z,17.84
2022-10-11T00:04:06.995Z,17.91
2022-10-11T00:06:51.495Z,17.94
2022-10-11T00:09:32.101Z,17.81
2022-10-11T00:12:13.631Z,17.89
2022-10-11T00:14:53.203Z,18.09
2022-10-11T00:17:34.666Z,18.18
2022-10-11T00:20:36.427Z,17.98
2022-10-11T00:23:16.814Z,17.71
2022-10-11T00:26:08.983Z,17.55
2022-10-11T00:28:52.996Z,17.52
2022-10-11T00:31:43.234Z,17.46
2022-10-11T00:34:26.619Z,17.34
2022-10-11T00:37:10.159Z,17.24
2022-10-11T00:39:51.338Z,17.15
2022-10-11T00:42:35.255Z,17.15
2022-10-11T00:45:28.148Z,17.07
2022-10-11T00:48:23.089Z,16.99
2022-10-11T00:51:46.336Z,16.74
2022-10-11T00:54:32.012Z,16.74
2022-10-11T00:57:28.670Z,16.94
2022-10-11T01:00:13.071Z,17.04
2022-10-11T01:03:01.105Z,16.90
2022-10-11T01:05:44.269Z,16.92
2022-10-11T01:08:27.040Z,16.77
2022-10-11T01:11:12.738Z,16.94
2022-10-11T01:14:22.242Z,16.97
2022-10-11T01:17:42.540Z,16.43
2022-10-11T01:20:59.603Z,16.31
2022-10-11T01:24:17.578Z,16.06
2022-10-11T01:27:41.114Z,15.96
2022-10-11T01:30:34.658Z,16.16
2022-10-11T01:33:56.243Z,16.02
2022-10-11T01:37:17.228Z,16.10
2022-10-11T01:40:15.213Z,15.96
2022-10-11T01:42:57.110Z,16.06
2022-10-11T01:45:39.029Z,16.00
2022-10-11T01:48:18.064Z,16.11
2022-10-11T01:51:03.901Z,16.02
2022-10-11T01:54:50.202Z,16.04
2022-10-11T01:58:16.570Z,16.18
2022-10-11T02:01:15.050Z,16.17
2022-10-11T02:04:27.650Z,16.15
2022-10-11T02:07:39.317Z,16.22
2022-10-11T02:10:44.393Z,16.00
2022-10-11T02:13:41.546Z,15.92
2022-10-11T02:16:32.550Z,15.97
2022-10-11T02:19:19.254Z,15.71
2022-10-11T02:22:07.472Z,15.53
2022-10-11T02:24:52.023Z,15.44
2022-10-11T02:27:35.297Z,15.66
2022-10-11T02:30:15.463Z,15.54
2022-10-11T02:32:58.650Z,15.47
2022-10-11T02:35:50.246Z,15.50
2022-10-11T02:38:40.564Z,15.46
2022-10-11T02:41:31.505Z,15.21
2022-10-11T02:44:22.616Z,15.72
2022-10-11T02:47:04.490Z,15.60
2022-10-11T02:49:32.628Z,15.51
2022-10-11T02:51:59.869Z,15.56
2022-10-11T02:54:27.933Z,15.41
2022-10-11T02:57:08.424Z,15.61
2022-10-11T02:59:47.645Z,15.25
2022-10-11T03:02:25.805Z,15.36
2022-10-11T03:05:04.834Z,15.51
2022-10-11T03:07:43.894Z,15.45
2022-10-11T03:10:22.868Z,15.54
2022-10-11T03:13:03.023Z,15.37
2022-10-11T03:15:47.933Z,15.34
2022-10-11T03:18:28.054Z,15.44
2022-10-11T03:21:06.286Z,15.54
2022-10-11T03:23:44.929Z,15.42
2022-10-11T03:26:24.309Z,15.61
2022-10-11T03:29:03.081Z,15.46
2022-10-11T03:31:42.289Z,15.56
2022-10-11T03:34:20.967Z,15.71
2022-10-11T03:37:00.088Z,15.87
2022-10-11T03:39:38.488Z,16.03
2022-10-11T03:42:17.257Z,16.12
2022-10-11T03:44:57.080Z,16.26
2022-10-11T03:47:38.347Z,16.13
2022-10-11T03:50:17.541Z,16.06
2022-10-11T03:52:56.329Z,16.10
2022-10-11T03:55:34.353Z,16.44
2022-10-11T03:58:13.059Z,16.46
2022-10-11T04:00:53.855Z,16.37
2022-10-11T04:03:31.933Z,16.20
2022-10-11T04:06:10.163Z,16.35
2022-10-11T04:08:50.394Z,16.42
2022-10-11T04:11:29.490Z,16.48
2022-10-11T04:14:11.233Z,16.48
2022-10-11T04:16:49.129Z,16.60
2022-10-11T04:19:27.639Z,16.71
2022-10-11T04:22:06.444Z,16.89
2022-10-11T04:24:46.923Z,16.76
2022-10-11T04:27:29.276Z,16.61
2022-10-11T04:30:12.983Z,16.71
2022-10-11T04:32:51.332Z,16.86
2022-10-11T04:35:29.354Z,16.88
2022-10-11T04:38:07.886Z,16.93
2022-10-11T04:40:47.681Z,16.81
2022-10-11T04:43:25.532Z,16.94
2022-10-11T04:46:06.130Z,16.92
2022-10-11T04:48:50.757Z,17.04
2022-10-11T04:51:30.347Z,17.06
2022-10-11T04:54:10.307Z,16.83
2022-10-11T04:56:52.342Z,17.14
2022-10-11T05:09:56.291Z,17.20
2022-10-11T05:12:34.311Z,17.15
2022-10-11T05:15:12.510Z,17.20
2022-10-11T05:17:50.642Z,17.37
2022-10-11T05:20:29.014Z,17.29
2022-10-11T05:23:08.362Z,17.22
2022-10-11T05:25:47.689Z,17.33
2022-10-11T05:28:36.480Z,17.11
2022-10-11T05:31:17.426Z,17.11
2022-10-11T05:33:56.690Z,17.13
2022-10-11T05:36:35.766Z,17.28
2022-10-11T05:39:13.569Z,17.38
2022-10-11T05:41:52.838Z,17.44
2022-10-11T05:44:45.349Z,17.47
2022-10-11T05:47:23.942Z,17.59
2022-10-11T05:50:03.561Z,17.51
2022-10-11T05:52:43.347Z,17.45
2022-10-11T05:55:22.295Z,17.49
2022-10-11T05:58:01.728Z,17.51
2022-10-11T06:00:41.583Z,17.64
2022-10-11T06:03:21.081Z,17.69
2022-10-11T06:06:03.620Z,17.52
2022-10-11T06:08:42.741Z,17.76
2022-10-11T06:11:42.786Z,17.68
2022-10-11T06:14:37.553Z,17.81
2022-10-11T06:17:43.172Z,17.92
2022-10-11T06:20:40.188Z,17.93
2022-10-11T06:23:33.151Z,17.86
2022-10-11T06:26:30.567Z,17.95
2022-10-11T06:29:25.925Z,18.03
2022-10-11T06:32:19.067Z,18.12
2022-10-11T06:35:24.012Z,18.21
2022-10-11T06:38:17.151Z,18.12
2022-10-11T06:41:30.205Z,18.24
2022-10-11T06:44:29.315Z,18.39
2022-10-11T06:47:25.891Z,18.09
2022-10-11T06:50:40.609Z,18.12
2022-10-11T06:53:42.629Z,18.25
2022-10-11T06:56:45.705Z,18.41
2022-10-11T06:59:43.308Z,18.22
2022-10-11T07:02:36.197Z,18.21
2022-10-11T07:05:34.718Z,18.42
2022-10-11T07:08:35.571Z,18.52
2022-10-11T07:11:57.846Z,18.18
2022-10-11T07:14:55.004Z,18.27
2022-10-11T07:17:52.830Z,18.53
2022-10-11T07:20:51.929Z,18.37
2022-10-11T07:23:48.071Z,18.75
2022-10-11T07:26:33.866Z,18.87
2022-10-11T07:29:35.053Z,18.93
2022-10-11T07:32:37.406Z,18.87
2022-10-11T07:35:45.955Z,18.63
2022-10-11T07:38:26.072Z,18.84
2022-10-11T07:41:22.480Z,18.82
2022-10-11T07:44:21.978Z,18.63
2022-10-11T07:47:24.609Z,18.98
2022-10-11T07:50:26.837Z,19.08
2022-10-11T07:53:25.911Z,19.42
2022-10-11T07:56:27.874Z,19.32
2022-10-11T07:59:21.205Z,19.51
2022-10-11T08:02:27.759Z,20.02
2022-10-11T08:05:34.800Z,20.10
2022-10-11T08:08:31.962Z,20.45
2022-10-11T08:11:37.270Z,20.30
2022-10-11T08:14:23.089Z,20.46
2022-10-11T08:17:09.612Z,20.65
2022-10-11T08:19:55.822Z,20.40
2022-10-11T08:22:42.490Z,20.92
2022-10-11T08:25:29.239Z,21.33
2022-10-11T08:28:17.782Z,21.78
2022-10-11T08:31:04.923Z,22.02
2022-10-11T08:33:51.065Z,22.54
2022-10-11T08:36:38.332Z,23.08
2022-10-11T08:39:24.044Z,23.09
2022-10-11T08:42:45.785Z,23.11
2022-10-11T08:45:48.474Z,22.78
2022-10-11T08:48:48.845Z,22.75
2022-10-11T08:51:32.767Z,22.36
2022-10-11T08:54:38.474Z,22.07
2022-10-11T08:57:11.400Z,22.07
2022-10-11T09:00:15.432Z,21.86
2022-10-11T09:03:47.826Z,22.13
2022-10-11T09:07:53.452Z,22.21
2022-10-11T09:10:57.638Z,22.46
2022-10-11T09:13:43.803Z,22.40
2022-10-11T09:17:06.315Z,22.57
2022-10-11T09:20:38.881Z,22.12
2022-10-11T09:24:19.092Z,21.92
2022-10-11T09:26:57.920Z,21.91
2022-10-11T09:30:11.783Z,22.08
2022-10-11T09:32:54.304Z,22.01
2022-10-11T09:35:23.237Z,22.03
2022-10-11T09:38:19.787Z,21.92
2022-10-11T09:41:02.191Z,21.74
2022-10-11T09:43:29.874Z,21.33
2022-10-11T09:45:57.455Z,21.62
2022-10-11T09:48:39.534Z,21.78
2022-10-11T09:51:18.304Z,21.52
2022-10-11T09:54:07.129Z,21.55
2022-10-11T09:56:43.338Z,21.92
2022-10-11T09:59:34.582Z,21.91
2022-10-11T10:02:16.657Z,22.20
2022-10-11T10:05:04.833Z,22.11
2022-10-11T10:07:35.858Z,21.69
2022-10-11T10:10:40.267Z,21.50
2022-10-11T10:13:20.378Z,21.56
2022-10-11T10:16:01.401Z,21.78
2022-10-11T10:18:50.971Z,21.83
2022-10-11T10:21:36.209Z,21.62
2022-10-11T10:24:37.716Z,21.64
2022-10-11T10:27:11.053Z,21.50
2022-10-11T10:29:38.639Z,21.36
2022-10-11T10:32:22.684Z,21.24
2022-10-11T10:35:47.664Z,21.08
2022-10-11T10:38:39.929Z,21.61
2022-10-11T10:41:14.632Z,21.90
2022-10-11T10:43:56.574Z,22.12
2022-10-11T10:46:58.166Z,22.03
2022-10-11T10:49:54.216Z,22.54
2022-10-11T10:52:44.922Z,22.57
2022-10-11T10:55:41.948Z,23.12
2022-10-11T10:59:14.659Z,23.38
2022-10-11T11:02:57.661Z,23.45
2022-10-11T11:06:41.034Z,23.97
2022-10-11T11:10:23.634Z,24.55
2022-10-11T11:14:06.534Z,24.34
2022-10-11T11:17:52.796Z,25.13
2022-10-11T11:20:57.534Z,25.20
2022-10-11T11:24:25.313Z,25.31
2022-10-11T11:27:49.922Z,24.79
2022-10-11T11:31:34.039Z,24.59
2022-10-11T11:35:12.784Z,24.55
2022-10-11T11:37:55.581Z,24.45
2022-10-11T11:41:12.204Z,24.13
2022-10-11T11:44:55.396Z,24.06
2022-10-11T11:47:38.376Z,24.11
2022-10-11T11:50:25.201Z,24.64
2022-10-11T11:53:05.006Z,24.70
2022-10-11T11:55:57.393Z,25.63
2022-10-11T11:58:44.743Z,26.19
2022-10-11T12:02:27.679Z,26.13
2022-10-11T12:05:10.177Z,26.73
2022-10-11T12:08:07.130Z,27.33
2022-10-11T12:10:39.611Z,27.47
2022-10-11T12:13:31.949Z,28.38
2022-10-11T12:16:14.702Z,28.76
2022-10-11T12:18:57.243Z,29.27
2022-10-11T12:21:43.787Z,29.74
2022-10-11T12:24:20.121Z,31.54
2022-10-11T12:26:59.558Z,32.36
2022-10-11T12:29:51.105Z,33.76
2022-10-11T12:32:27.586Z,32.66
2022-10-11T12:35:39.979Z,31.55
2022-10-11T12:38:21.955Z,31.05
2022-10-11T12:41:00.791Z,29.60
2022-10-11T12:43:36.170Z,29.16
2022-10-11T12:46:31.032Z,29.74
2022-10-11T12:49:03.554Z,29.48
2022-10-11T12:52:01.367Z,28.83
2022-10-11T12:55:12.280Z,27.94
2022-10-11T12:58:38.487Z,27.23
2022-10-11T13:01:17.923Z,27.22
2022-10-11T13:03:57.610Z,27.47
2022-10-11T13:09:39.347Z,25.95
2022-10-11T13:12:26.987Z,25.94
2022-10-11T13:15:11.400Z,26.04
2022-10-11T13:17:41.712Z,26.00
2022-10-11T13:20:27.907Z,26.19
2022-10-11T13:22:57.344Z,26.34
2022-10-11T13:25:37.038Z,26.60
2022-10-11T13:28:09.200Z,26.61
2022-10-11T13:30:45.400Z,26.69
2022-10-11T13:33:33.505Z,26.92
2022-10-11T13:36:05.883Z,26.89
2022-10-11T13:38:37.059Z,26.57
2022-10-11T13:41:10.449Z,26.22
2022-10-11T13:43:40.677Z,25.34
2022-10-11T13:46:22.274Z,24.94
2022-10-11T13:49:40.372Z,25.04
2022-10-11T13:52:22.978Z,25.36
2022-10-11T13:55:04.904Z,25.52
2022-10-11T13:57:47.257Z,25.71
2022-10-11T14:00:17.676Z,25.55
2022-10-11T14:03:13.750Z,25.40
2022-10-11T14:05:58.223Z,25.14
2022-10-11T14:08:31.768Z,24.74
2022-10-11T14:12:14.149Z,24.50
2022-10-11T14:14:43.084Z,24.35
2022-10-11T14:17:33.192Z,24.48
2022-10-11T14:20:34.412Z,24.55
2022-10-11T14:24:17.834Z,24.45
2022-10-11T14:26:56.305Z,24.08
2022-10-11T14:30:39.114Z,23.74
2022-10-11T14:34:22.164Z,23.63
2022-10-11T14:38:05.104Z,23.41
2022-10-11T14:41:48.247Z,23.00
2022-10-11T14:45:31.148Z,22.63
2022-10-11T14:49:14.310Z,22.36
2022-10-11T14:52:57.407Z,22.30
2022-10-11T14:56:40.387Z,22.19
2022-10-11T15:00:23.249Z,22.03
2022-10-11T15:04:05.993Z,21.88
2022-10-11T15:06:39.499Z,21.89
2022-10-11T15:09:08.650Z,21.77
2022-10-11T15:11:39.105Z,21.71
2022-10-11T15:14:07.013Z,21.81
2022-10-11T15:16:35.593Z,21.71
2022-10-11T15:19:04.047Z,21.49
2022-10-11T15:21:32.083Z,21.64
2022-10-11T15:23:59.564Z,21.70
2022-10-11T15:26:29.802Z,21.82
2022-10-11T15:28:57.982Z,21.62
2022-10-11T15:31:26.253Z,21.09
2022-10-11T15:33:53.737Z,20.76
2022-10-11T15:36:22.961Z,20.89
2022-10-11T15:38:50.344Z,20.89
2022-10-11T15:41:20.113Z,20.77
2022-10-11T15:43:49.678Z,20.55
2022-10-11T15:46:22.292Z,20.87
2022-10-11T15:49:17.452Z,20.81
2022-10-11T15:51:45.818Z,20.62
2022-10-11T15:54:13.342Z,20.67
2022-10-11T15:56:40.752Z,20.55
2022-10-11T15:59:11.723Z,20.65
2022-10-11T16:01:39.613Z,20.55
2022-10-11T16:04:06.955Z,20.56
2022-10-11T16:06:34.172Z,20.25
2022-10-11T16:09:01.854Z,20.19
2022-10-11T16:11:29.257Z,20.27
2022-10-11T16:13:56.615Z,20.26
2022-10-11T16:16:24.064Z,20.34
2022-10-11T16:18:51.633Z,20.27
2022-10-11T16:21:20.782Z,20.00
2022-10-11T16:23:48.087Z,20.15
2022-10-11T16:26:16.484Z,20.33
2022-10-11T16:28:45.158Z,19.96
2022-10-11T16:31:19.737Z,19.96
2022-10-11T16:33:48.090Z,19.88
2022-10-11T16:36:32.628Z,19.89
2022-10-11T16:39:06.217Z,19.83
2022-10-11T16:41:33.533Z,19.75
2022-10-11T16:44:02.448Z,19.57
2022-10-11T16:46:31.532Z,19.75
2022-10-11T16:49:03.797Z,19.68
2022-10-11T16:51:31.378Z,19.77
2022-10-11T16:53:58.920Z,19.53
2022-10-11T16:56:26.373Z,19.59
2022-10-11T16:58:54.969Z,19.47
2022-10-11T17:01:22.585Z,19.32
2022-10-11T17:03:51.074Z,19.29
2022-10-11T17:06:19.774Z,19.27
2022-10-11T17:08:47.437Z,19.03
2022-10-11T17:11:17.467Z,18.57
2022-10-11T17:13:46.467Z,18.49
2022-10-11T17:16:16.032Z,18.69
2022-10-11T17:18:44.281Z,18.71
2022-10-11T17:21:17.006Z,18.76
2022-10-11T17:23:44.802Z,18.79
2022-10-11T17:26:24.795Z,18.63
2022-10-11T17:28:57.098Z,18.65
2022-10-11T17:31:25.623Z,18.31
2022-10-11T17:33:54.779Z,18.27
2022-10-11T17:36:27.903Z,18.27
2022-10-11T17:38:55.381Z,18.21
2022-10-11T17:41:22.783Z,18.19
2022-10-11T17:43:50.049Z,18.08
2022-10-11T17:46:18.926Z,18.08
2022-10-11T17:48:46.199Z,18.05
2022-10-11T17:51:19.256Z,18.03
2022-10-11T17:53:52.915Z,17.91
2022-10-11T17:56:28.836Z,17.81
2022-10-11T17:58:59.683Z,17.72
2022-10-11T18:01:29.318Z,17.49
2022-10-11T18:04:02.024Z,17.54
2022-10-11T18:06:34.609Z,17.72
2022-10-11T18:09:04.185Z,17.81
2022-10-11T18:11:32.607Z,17.86
2022-10-11T18:14:00.790Z,17.95
2022-10-11T18:16:31.602Z,17.87
2022-10-11T18:18:59.364Z,17.91
2022-10-11T18:21:34.376Z,17.96
2022-10-11T18:24:15.402Z,17.92
2022-10-11T18:26:45.429Z,17.84
2022-10-11T18:29:13.155Z,18.02
2022-10-11T18:31:41.690Z,17.84
2022-10-11T18:34:10.844Z,17.87
2022-10-11T18:36:42.107Z,17.81
2022-10-11T18:39:14.809Z,17.76
2022-10-11T18:41:44.402Z,17.72
2022-10-11T18:44:15.043Z,17.71
2022-10-11T18:46:45.998Z,17.69
2022-10-11T18:49:14.209Z,17.61
2022-10-11T18:51:42.604Z,17.56
2022-10-11T18:54:15.212Z,17.59
2022-10-11T18:56:45.972Z,17.60
2022-10-11T18:59:13.288Z,17.58
2022-10-11T19:01:44.602Z,17.26
2022-10-11T19:04:16.058Z,17.16
2022-10-11T19:06:50.766Z,17.09
2022-10-11T19:09:26.003Z,17.05
2022-10-11T19:11:59.821Z,17.19
2022-10-11T19:14:30.229Z,17.23
2022-10-11T19:16:57.956Z,17.21
2022-10-11T19:19:29.296Z,17.23
2022-10-11T19:21:57.165Z,17.14
2022-10-11T19:24:28.465Z,17.24
2022-10-11T19:27:02.003Z,17.31
2022-10-11T19:29:31.205Z,17.34
2022-10-11T19:32:03.419Z,17.28
2022-10-11T19:34:31.630Z,17.21
2022-10-11T19:37:01.043Z,17.23
2022-10-11T19:39:31.872Z,17.20
2022-10-11T19:42:00.244Z,17.17
2022-10-11T19:44:27.519Z,17.07
2022-10-11T19:46:55.468Z,16.92
2022-10-11T19:49:25.931Z,16.92
2022-10-11T19:51:55.571Z,16.52
2022-10-11T19:54:24.402Z,16.80
2022-10-11T19:56:52.570Z,16.86
2022-10-11T19:59:20.282Z,16.92
2022-10-11T20:01:52.394Z,17.05
2022-10-11T20:07:09.518Z,17.34
2022-10-11T20:09:37.043Z,17.28
2022-10-11T20:12:04.903Z,17.36
2022-10-11T20:14:32.949Z,17.39
2022-10-11T20:17:00.607Z,17.49
2022-10-11T20:19:31.034Z,17.57
2022-10-11T20:22:01.349Z,17.60
2022-10-11T20:24:33.561Z,17.65
2022-10-11T20:27:04.604Z,17.57
2022-10-11T20:29:32.115Z,17.69
2022-10-11T20:31:59.876Z,17.72
2022-10-11T20:34:27.746Z,17.76
2022-10-11T20:36:55.215Z,17.72
2022-10-11T20:39:23.727Z,17.70
2022-10-11T20:41:51.448Z,17.47
2022-10-11T20:44:19.087Z,17.44
2022-10-11T20:46:47.696Z,17.56
2022-10-11T20:49:15.379Z,17.55
2022-10-11T20:51:45.152Z,17.67
2022-10-11T20:54:12.903Z,17.73
2022-10-11T20:56:40.447Z,17.83
2022-10-11T20:59:08.375Z,17.92
2022-10-11T21:01:40.678Z,17.94
2022-10-11T21:04:18.773Z,17.94
2022-10-11T21:06:48.398Z,17.86
2022-10-11T21:09:17.283Z,17.92
2022-10-11T21:11:49.323Z,18.02
2022-10-11T21:14:17.230Z,18.10
2022-10-11T21:16:44.637Z,18.00
2022-10-11T21:19:15.346Z,18.00
2022-10-11T21:21:44.568Z,17.97
2022-10-11T21:24:13.232Z,17.92
2022-10-11T21:26:40.697Z,17.89
2022-10-11T21:29:08.488Z,17.81
2022-10-11T21:31:36.399Z,17.84
2022-10-11T21:34:05.181Z,17.89
2022-10-11T21:36:32.957Z,17.87
2022-10-11T21:39:00.493Z,17.90
2022-10-11T21:41:31.301Z,17.85
2022-10-11T21:43:59.031Z,17.89
2022-10-11T21:49:19.891Z,17.86
2022-10-11T21:51:47.443Z,17.80
2022-10-11T21:54:15.072Z,17.84
2022-10-11T21:56:42.915Z,17.86
2022-10-11T21:59:12.598Z,17.91
2022-10-11T22:01:41.958Z,17.98
2022-10-11T22:04:11.243Z,18.03
2022-10-11T22:06:39.306Z,18.08
2022-10-11T22:09:08.615Z,18.12
2022-10-11T22:11:37.402Z,17.91
2022-10-11T22:14:05.380Z,17.89
2022-10-11T22:16:34.926Z,17.86
2022-10-11T22:19:03.578Z,17.89
2022-10-11T22:21:31.603Z,17.81
2022-10-11T22:23:59.194Z,18.19
2022-10-11T22:26:34.570Z,17.75
2022-10-11T22:29:01.955Z,17.68
2022-10-11T22:31:30.439Z,17.77
2022-10-11T22:34:00.606Z,17.87
2022-10-11T22:36:33.886Z,17.95
2022-10-11T22:39:02.594Z,18.02
2022-10-11T22:41:30.030Z,17.91
2022-10-11T22:43:57.707Z,17.83
2022-10-11T22:46:27.956Z,17.86
2022-10-11T22:48:55.888Z,17.84
2022-10-11T22:51:23.570Z,17.90
2022-10-11T22:53:51.135Z,17.86
2022-10-11T22:56:20.421Z,17.94
2022-10-11T22:58:48.524Z,17.95
2022-10-11T23:01:16.690Z,18.02
2022-10-11T23:03:49.313Z,17.83
2022-10-11T23:06:17.748Z,17.64
2022-10-11T23:08:45.107Z,17.64
2022-10-11T23:11:12.755Z,17.80
2022-10-11T23:13:40.533Z,17.82
2022-10-11T23:16:12.802Z,17.86
2022-10-11T23:18:40.415Z,17.85
2022-10-11T23:21:10.665Z,17.82
2022-10-11T23:23:40.784Z,17.87
2022-10-11T23:26:17.662Z,17.82
2022-10-11T23:28:45.623Z,17.89
2022-10-11T23:31:17.955Z,17.83
2022-10-11T23:33:47.336Z,17.66
2022-10-11T23:36:18.622Z,17.77
2022-10-11T23:38:58.615Z,17.81
2022-10-11T23:41:29.611Z,17.79
2022-10-11T23:43:58.617Z,17.78
2022-10-11T23:46:27.646Z,17.88
2022-10-11T23:48:55.308Z,17.87
2022-10-11T23:51:23.028Z,17.87
2022-10-11T23:53:50.527Z,17.87
2022-10-11T23:56:18.198Z,17.91
2022-10-11T23:58:45.941Z,17.90
